Time;durP1;ratioP1;P1;durP2;ratioP2;P2;SDS_P1;SDS_P2;PMS_P1;PMS_P2;Temp;Humidity;BMP_temperature;BMP_pressure;BME280_temperature;BME280_humidity;BME280_pressure;Samples;Min_cycle;Max_cycle;Signal;HPM_P1;HPM_P2
2023/07/21 00:02:19;;;;;;;0.80;0.80;;;16.60;97.70;;;;;;5033475;28;20414;-70
2023/07/21 00:04:45;;;;;;;1.53;1.10;;;16.60;98.20;;;;;;5033496;28;20535;-69
2023/07/21 00:07:10;;;;;;;2.13;1.37;;;16.30;99.90;;;;;;5033642;28;20886;-70
2023/07/21 00:09:36;;;;;;;1.37;1.27;;;16.60;98.30;;;;;;5033564;28;20646;-70
2023/07/21 00:12:03;;;;;;;0.60;0.60;;;16.60;98.10;;;;;;5033451;28;20638;-70
2023/07/21 00:14:29;;;;;;;0.60;0.60;;;16.70;97.90;;;;;;5033305;28;20276;-70
2023/07/21 00:16:55;;;;;;;3.70;2.10;;;;;;;;;;5033592;28;20898;-69
2023/07/21 00:19:21;;;;;;;0.93;0.93;;;16.80;97.50;;;;;;5033254;28;20777;-69
2023/07/21 00:21:47;;;;;;;1.57;1.47;;;16.80;97.70;;;;;;5033146;28;20412;-70
2023/07/21 00:24:13;;;;;;;1.17;0.60;;;16.80;97.80;;;;;;5033342;28;20890;-69
2023/07/21 00:26:39;;;;;;;0.87;0.70;;;16.90;97.60;;;;;;5033366;28;20696;-70
2023/07/21 00:29:06;;;;;;;1.33;1.03;;;;;;;;;;5033120;28;20811;-69
2023/07/21 00:31:31;;;;;;;0.80;0.63;;;16.90;97.20;;;;;;5033060;28;20405;-70
2023/07/21 00:33:57;;;;;;;2.00;1.53;;;16.90;97.50;;;;;;5033262;28;20406;-69
2023/07/21 00:36:23;;;;;;;0.90;0.57;;;16.90;97.90;;;;;;5033318;28;20618;-69
2023/07/21 00:38:49;;;;;;;0.90;0.80;;;16.90;97.70;;;;;;5035627;28;20778;-70
2023/07/21 00:41:15;;;;;;;1.30;1.23;;;16.90;97.80;;;;;;5037192;28;20416;-70
2023/07/21 00:43:41;;;;;;;1.03;1.03;;;16.80;98.00;;;;;;5037270;28;20194;-69
2023/07/21 00:46:07;;;;;;;1.07;1.00;;;16.80;98.50;;;;;;5037201;28;20765;-69
2023/07/21 00:48:33;;;;;;;0.70;0.60;;;16.80;98.60;;;;;;5037054;28;20796;-69
2023/07/21 00:50:59;;;;;;;0.90;0.90;;;16.70;98.20;;;;;;5037007;28;20411;-69
2023/07/21 00:53:26;;;;;;;1.33;1.23;;;16.70;98.20;;;;;;5037164;28;20443;-69
2023/07/21 00:55:52;;;;;;;0.50;0.40;;;16.80;97.70;;;;;;5037115;28;20415;-71
2023/07/21 00:58:19;;;;;;;0.40;0.40;;;16.80;97.80;;;;;;5036933;28;20430;-70
2023/07/21 01:00:46;;;;;;;1.00;0.90;;;16.70;97.80;;;;;;5036754;28;20182;-70
2023/07/21 01:03:13;;;;;;;0.60;0.53;;;16.70;97.90;;;;;;5036882;28;20484;-70
2023/07/21 01:05:43;;;;;;;2.47;2.30;;;16.70;98.00;;;;;;5036805;28;20834;-69
2023/07/21 01:08:11;;;;;;;0.70;0.70;;;16.70;98.10;;;;;;5036930;28;20429;-70
2023/07/21 01:10:38;;;;;;;3.03;0.90;;;16.70;98.20;;;;;;5036651;28;20424;-69
2023/07/21 01:13:05;;;;;;;0.67;0.67;;;16.20;97.50;;;;;;5036759;28;20406;-70
2023/07/21 01:15:35;;;;;;;0.63;0.63;;;16.70;98.10;;;;;;5036750;28;20410;-70
2023/07/21 01:18:02;;;;;;;0.50;0.50;;;16.60;97.70;;;;;;5036647;28;20529;-69
2023/07/21 01:20:29;;;;;;;1.13;1.07;;;16.60;97.70;;;;;;5036561;28;20417;-70
2023/07/21 01:23:06;;;;;;;1.27;0.90;;;16.50;98.10;;;;;;5036412;28;20590;-70
2023/07/21 01:25:33;;;;;;;1.67;1.57;;;16.30;98.20;;;;;;5036937;28;20396;-69
2023/07/21 01:28:01;;;;;;;0.70;0.70;;;16.40;98.10;;;;;;5036362;28;20518;-70
2023/07/21 01:30:28;;;;;;;1.27;1.27;;;16.40;98.10;;;;;;5036417;28;20421;-68
2023/07/21 01:32:55;;;;;;;1.03;1.03;;;16.30;98.10;;;;;;5036330;28;20412;-70
2023/07/21 01:35:22;;;;;;;1.53;0.83;;;16.20;97.90;;;;;;5036355;28;20408;-69
2023/07/21 01:37:49;;;;;;;1.13;0.87;;;16.10;98.30;;;;;;5036316;28;20432;-69
2023/07/21 01:40:16;;;;;;;1.17;0.90;;;16.10;98.40;;;;;;5036338;28;20732;-69
2023/07/21 01:42:46;;;;;;;1.43;0.70;;;16.10;98.80;;;;;;5035872;28;20516;-70
2023/07/21 01:45:12;;;;;;;1.33;1.23;;;16.10;99.00;;;;;;5035939;28;20410;-70
2023/07/21 01:47:39;;;;;;;0.87;0.80;;;;;;;;;;5035952;28;20433;-70
2023/07/21 01:50:06;;;;;;;1.37;1.30;;;16.30;98.50;;;;;;5034648;28;20413;-69
2023/07/21 01:52:34;;;;;;;1.13;0.97;;;16.40;98.60;;;;;;5015995;28;20784;-69
2023/07/21 01:55:22;;;;;;;0.80;0.80;;;16.40;98.50;;;;;;5035402;28;20410;-69
2023/07/21 01:57:57;;;;;;;1.07;0.87;;;16.50;98.80;;;;;;5035953;28;20437;-70
2023/07/21 02:00:33;;;;;;;3.27;3.07;;;16.60;98.50;;;;;;5035799;28;20892;-70
2023/07/21 02:03:01;;;;;;;0.80;0.63;;;16.60;98.40;;;;;;5035525;28;20452;-70
2023/07/21 02:05:27;;;;;;;4.93;1.33;;;16.60;98.50;;;;;;5035746;28;20412;-69
2023/07/21 02:07:53;;;;;;;0.70;0.70;;;16.50;98.40;;;;;;5035543;28;20434;-69
2023/07/21 02:10:20;;;;;;;2.27;1.80;;;16.60;97.70;;;;;;5035812;28;20430;-70
2023/07/21 02:12:45;;;;;;;1.40;1.10;;;16.50;97.40;;;;;;5035438;28;20827;-69
2023/07/21 02:15:11;;;;;;;1.57;1.17;;;16.50;97.30;;;;;;5035579;28;20447;-69
2023/07/21 02:17:38;;;;;;;0.40;0.40;;;16.40;97.70;;;;;;5035746;28;20217;-69
2023/07/21 02:20:07;;;;;;;6.20;1.30;;;16.30;98.00;;;;;;5035629;28;20405;-70
2023/07/21 02:22:33;;;;;;;0.50;0.50;;;16.20;98.00;;;;;;5035217;28;20414;-70
2023/07/21 02:24:59;;;;;;;1.50;1.40;;;16.10;98.20;;;;;;5035539;28;20449;-69
2023/07/21 02:27:25;;;;;;;0.97;0.97;;;16.20;98.50;;;;;;5035350;28;20839;-70
2023/07/21 02:29:51;;;;;;;6.03;1.13;;;16.20;98.50;;;;;;5035453;28;20173;-69
2023/07/21 02:32:17;;;;;;;0.77;0.77;;;16.20;98.40;;;;;;5035135;28;20490;-70
2023/07/21 02:34:43;;;;;;;0.60;0.60;;;16.20;98.60;;;;;;5035331;28;20183;-69
2023/07/21 02:37:08;;;;;;;1.03;1.03;;;15.70;99.90;;;;;;5035149;28;20171;-70
2023/07/21 02:39:35;;;;;;;1.27;1.27;;;16.00;98.40;;;;;;5035094;28;20812;-70
2023/07/21 02:42:00;;;;;;;1.23;0.90;;;15.90;98.30;;;;;;5034941;28;20171;-70
2023/07/21 02:44:27;;;;;;;1.57;1.47;;;16.00;98.40;;;;;;5034998;28;20453;-69
2023/07/21 02:46:53;;;;;;;0.93;0.53;;;16.00;98.20;;;;;;5035205;28;20521;-71
2023/07/21 02:49:19;;;;;;;0.60;0.60;;;16.00;98.20;;;;;;5035009;28;20429;-69
2023/07/21 02:51:44;;;;;;;0.80;0.80;;;15.90;98.40;;;;;;5034704;28;20413;-70
2023/07/21 02:54:10;;;;;;;0.70;0.70;;;15.80;98.50;;;;;;5035037;28;20636;-69
2023/07/21 02:56:37;;;;;;;0.70;0.60;;;15.70;98.70;;;;;;5034911;28;20241;-69
2023/07/21 02:59:03;;;;;;;1.23;1.23;;;15.70;99.00;;;;;;5034796;28;20220;-69
2023/07/21 03:01:29;;;;;;;1.10;1.00;;;15.80;98.50;;;;;;5034055;28;20415;-70
2023/07/21 03:03:55;;;;;;;0.47;0.47;;;15.90;98.30;;;;;;5034749;28;20598;-69
2023/07/21 03:06:21;;;;;;;1.07;1.07;;;15.90;98.20;;;;;;5034660;28;20397;-70
2023/07/21 03:08:47;;;;;;;0.43;0.43;;;15.90;98.10;;;;;;5034455;28;20942;-70
2023/07/21 03:11:14;;;;;;;0.73;0.73;;;15.80;98.10;;;;;;5034433;28;20177;-69
2023/07/21 03:13:44;;;;;;;3.50;0.87;;;15.70;98.30;;;;;;5034599;28;20494;-70
2023/07/21 03:16:12;;;;;;;0.63;0.63;;;15.60;98.50;;;;;;5034447;28;20932;-70
2023/07/21 03:18:37;;;;;;;0.90;0.70;;;15.50;98.90;;;;;;5034279;28;20511;-68
2023/07/21 03:21:03;;;;;;;0.93;0.93;;;15.50;98.60;;;;;;5034192;28;20451;-69
2023/07/21 03:23:29;;;;;;;1.53;1.47;;;15.40;98.90;;;;;;5034467;28;20274;-70
2023/07/21 03:25:55;;;;;;;3.80;1.43;;;15.30;99.40;;;;;;5034425;28;20596;-70
2023/07/21 03:28:21;;;;;;;0.53;0.53;;;15.30;98.90;;;;;;5034097;28;20195;-69
2023/07/21 03:30:59;;;;;;;1.03;1.03;;;15.40;99.00;;;;;;5033960;28;20408;-69
2023/07/21 03:33:25;;;;;;;0.87;0.80;;;15.40;99.00;;;;;;5034062;28;20399;-69
2023/07/21 03:36:04;;;;;;;2.63;1.67;;;15.40;98.90;;;;;;5033440;28;20420;-69
2023/07/21 03:38:32;;;;;;;0.80;0.77;;;15.30;98.90;;;;;;5033921;28;20293;-69
2023/07/21 03:41:08;;;;;;;1.33;1.23;;;15.20;99.20;;;;;;5033732;28;20410;-69
2023/07/21 03:43:37;;;;;;;0.67;0.50;;;15.10;99.40;;;;;;5033931;28;20511;-69
2023/07/21 03:46:05;;;;;;;4.57;1.27;;;15.10;99.30;;;;;;5034031;28;20409;-69
2023/07/21 03:48:31;;;;;;;1.27;0.90;;;15.20;99.20;;;;;;5033722;28;20508;-70
2023/07/21 03:51:00;;;;;;;0.50;0.40;;;15.20;99.10;;;;;;5033925;28;20437;-69
2023/07/21 03:53:27;;;;;;;0.60;0.60;;;15.20;99.30;;;;;;5033701;28;20417;-69
2023/07/21 03:55:53;;;;;;;1.23;1.13;;;15.10;99.10;;;;;;5033811;28;20414;-70
2023/07/21 03:58:19;;;;;;;0.73;0.73;;;15.10;99.30;;;;;;5033617;28;20436;-69
2023/07/21 04:00:45;;;;;;;0.70;0.70;;;14.90;99.30;;;;;;5033530;28;20894;-69
2023/07/21 04:03:11;;;;;;;1.80;1.67;;;14.90;99.50;;;;;;5033515;28;20535;-70
2023/07/21 04:05:37;;;;;;;1.00;0.90;;;14.90;99.30;;;;;;5033641;28;20398;-70
2023/07/21 04:08:03;;;;;;;1.33;1.30;;;14.80;99.60;;;;;;5033533;28;20452;-70
2023/07/21 04:10:30;;;;;;;1.07;0.97;;;14.80;99.90;;;;;;5033604;28;20238;-70
2023/07/21 04:12:56;;;;;;;1.17;0.80;;;14.80;99.80;;;;;;5032365;28;20881;-69
2023/07/21 04:15:22;;;;;;;1.20;1.10;;;14.90;99.70;;;;;;5033555;28;20401;-70
2023/07/21 04:17:48;;;;;;;1.33;1.20;;;14.90;99.30;;;;;;5033213;28;20969;-69
2023/07/21 04:20:14;;;;;;;0.93;0.93;;;14.90;99.10;;;;;;5033436;28;20405;-70
2023/07/21 04:22:39;;;;;;;0.80;0.80;;;14.90;99.10;;;;;;5033272;28;20265;-68
2023/07/21 04:25:06;;;;;;;0.60;0.60;;;14.90;99.20;;;;;;5033218;28;20204;-70
2023/07/21 04:27:31;;;;;;;0.70;0.70;;;14.80;99.40;;;;;;5033382;28;20206;-70
2023/07/21 04:29:58;;;;;;;1.33;0.77;;;14.80;99.90;;;;;;5033185;28;20405;-69
2023/07/21 04:32:24;;;;;;;0.93;0.83;;;14.80;99.90;;;;;;5033064;28;20196;-69
2023/07/21 04:34:49;;;;;;;0.63;0.63;;;14.80;99.90;;;;;;5033358;28;20909;-70
2023/07/21 04:37:15;;;;;;;0.60;0.60;;;14.70;99.90;;;;;;5015480;28;20186;-69
2023/07/21 04:39:41;;;;;;;1.43;1.27;;;14.80;99.90;;;;;;5033264;28;20178;-70
2023/07/21 04:42:08;;;;;;;0.93;0.90;;;14.90;99.90;;;;;;5033049;28;20174;-70
2023/07/21 04:44:33;;;;;;;0.73;0.70;;;15.00;99.90;;;;;;5033064;28;20203;-70
2023/07/21 04:46:59;;;;;;;2.10;0.90;;;15.00;99.90;;;;;;5033131;28;20416;-69
2023/07/21 04:49:25;;;;;;;0.73;0.50;;;15.10;99.60;;;;;;5033043;28;20175;-70
2023/07/21 04:51:50;;;;;;;1.00;0.53;;;15.20;99.50;;;;;;5033252;28;20530;-69
2023/07/21 04:54:16;;;;;;;1.23;1.13;;;15.40;99.70;;;;;;5033355;28;20176;-69
2023/07/21 04:56:43;;;;;;;1.70;1.60;;;15.70;99.80;;;;;;5033159;28;20237;-70
2023/07/21 04:59:09;;;;;;;2.57;1.57;;;16.10;98.80;;;;;;5032941;28;20552;-69
2023/07/21 05:01:35;;;;;;;1.53;1.43;;;16.30;98.10;;;;;;5032860;28;20410;-70
2023/07/21 05:04:01;;;;;;;1.33;0.90;;;16.60;97.30;;;;;;5032862;28;20458;-69
2023/07/21 05:06:26;;;;;;;0.70;0.70;;;17.00;97.10;;;;;;5033105;28;20171;-70
2023/07/21 05:08:52;;;;;;;0.60;0.60;;;17.30;96.50;;;;;;5032885;28;20215;-71
2023/07/21 05:11:18;;;;;;;1.40;1.17;;;17.80;95.20;;;;;;5032895;28;20691;-69
2023/07/21 05:13:48;;;;;;;0.77;0.77;;;18.40;94.50;;;;;;5032913;28;20179;-70
2023/07/21 05:16:13;;;;;;;1.67;1.47;;;19.10;93.10;;;;;;5033103;28;20191;-70
2023/07/21 05:18:40;;;;;;;0.70;0.70;;;19.60;90.80;;;;;;5032615;28;20479;-71
2023/07/21 05:21:06;;;;;;;0.70;0.60;;;19.90;90.90;;;;;;5032803;28;20170;-72
2023/07/21 05:23:32;;;;;;;0.63;0.63;;;19.90;90.40;;;;;;5033183;28;20751;-70
2023/07/21 05:26:00;;;;;;;0.70;0.70;;;19.70;90.30;;;;;;5036632;28;20176;-70
2023/07/21 05:28:26;;;;;;;0.60;0.60;;;19.50;90.70;;;;;;5036351;28;20189;-73
2023/07/21 05:30:52;;;;;;;0.70;0.70;;;19.20;90.80;;;;;;5036249;28;20451;-71
2023/07/21 05:33:18;;;;;;;1.03;1.03;;;19.20;91.20;;;;;;5036188;28;20444;-71
2023/07/21 05:35:43;;;;;;;0.53;0.53;;;19.30;90.80;;;;;;5034518;28;20177;-73
2023/07/21 05:38:10;;;;;;;1.27;0.77;;;19.20;90.80;;;;;;5035265;28;20326;-70
2023/07/21 05:40:36;;;;;;;0.70;0.70;;;19.20;91.20;;;;;;5036837;28;20166;-70
2023/07/21 05:43:03;;;;;;;2.00;1.20;;;19.10;91.20;;;;;;5035972;28;20414;-71
2023/07/21 05:45:28;;;;;;;0.93;0.90;;;19.00;91.40;;;;;;5036434;28;20163;-69
2023/07/21 05:47:55;;;;;;;0.77;0.77;;;18.80;91.90;;;;;;5036349;28;20433;-69
2023/07/21 05:50:21;;;;;;;1.10;1.00;;;18.70;92.40;;;;;;5036251;28;20401;-70
2023/07/21 05:52:50;;;;;;;1.47;1.37;;;18.60;92.00;;;;;;5035975;28;20396;-70
2023/07/21 05:55:16;;;;;;;0.80;0.50;;;18.40;92.00;;;;;;5036068;28;20463;-71
2023/07/21 05:57:42;;;;;;;0.40;0.40;;;18.30;92.20;;;;;;5036161;28;20812;-70
2023/07/21 06:00:14;;;;;;;1.03;0.60;;;18.30;92.30;;;;;;5035897;28;20191;-71
2023/07/21 06:02:40;;;;;;;0.60;0.60;;;18.30;92.30;;;;;;5036096;28;20397;-69
2023/07/21 06:05:07;;;;;;;1.43;1.00;;;18.30;92.80;;;;;;5036152;28;20843;-70
2023/07/21 06:07:32;;;;;;;3.47;1.80;;;18.40;93.20;;;;;;5036281;28;20689;-71
2023/07/21 06:09:58;;;;;;;0.60;0.60;;;18.70;92.70;;;;;;5035661;28;20413;-70
2023/07/21 06:12:23;;;;;;;1.97;1.30;;;18.80;92.10;;;;;;5035536;28;20168;-70
2023/07/21 06:14:49;;;;;;;0.93;0.93;;;19.10;91.90;;;;;;5035820;28;20215;-70
2023/07/21 06:17:15;;;;;;;0.90;0.90;;;19.70;99.90;;;;;;5035692;28;20224;-71
2023/07/21 06:19:41;;;;;;;0.60;0.60;;;19.90;90.50;;;;;;5035377;28;20257;-70
2023/07/21 06:22:07;;;;;;;0.90;0.63;;;20.30;89.60;;;;;;5035229;28;20661;-71
2023/07/21 06:24:32;;;;;;;0.40;0.40;;;20.60;89.80;;;;;;5035063;28;20453;-70
2023/07/21 06:26:59;;;;;;;1.17;1.03;;;21.50;92.80;;;;;;5035518;28;20749;-70
2023/07/21 06:29:24;;;;;;;1.67;1.27;;;21.70;88.30;;;;;;5035336;28;20228;-70
2023/07/21 06:31:51;;;;;;;0.50;0.50;;;22.60;86.30;;;;;;5035070;28;20810;-70
2023/07/21 06:34:17;;;;;;;0.90;0.67;;;24.00;81.50;;;;;;5035151;28;20166;-71
2023/07/21 06:36:43;;;;;;;1.43;0.87;;;25.60;78.30;;;;;;5034294;28;20932;-71
2023/07/21 06:39:09;;;;;;;1.00;0.90;;;27.20;71.00;;;;;;5034968;28;20483;-72
2023/07/21 06:41:35;;;;;;;0.60;0.60;;;28.70;64.60;;;;;;5034982;28;20728;-72
2023/07/21 06:44:01;;;;;;;0.70;0.50;;;30.00;57.80;;;;;;5035130;28;20222;-72
2023/07/21 06:46:26;;;;;;;0.60;0.60;;;31.10;54.70;;;;;;5035609;28;20928;-71
2023/07/21 06:48:53;;;;;;;0.50;0.50;;;32.10;52.10;;;;;;5035080;28;20190;-71
2023/07/21 06:51:19;;;;;;;0.60;0.60;;;32.90;49.40;;;;;;5035110;28;20171;-71
2023/07/21 06:53:45;;;;;;;1.07;0.77;;;33.40;48.20;;;;;;5034830;28;20772;-72
2023/07/21 06:56:13;;;;;;;0.60;0.60;;;33.50;47.40;;;;;;5034846;28;20220;-70
2023/07/21 06:58:41;;;;;;;1.27;0.87;;;33.30;46.60;;;;;;5034307;28;20546;-71
2023/07/21 07:01:09;;;;;;;0.63;0.60;;;32.70;48.00;;;;;;5034555;28;20921;-71
2023/07/21 07:03:34;;;;;;;0.60;0.60;;;31.80;48.30;;;;;;5033010;28;20536;-71
2023/07/21 07:06:00;;;;;;;0.70;0.70;;;30.90;50.10;;;;;;5035004;28;20951;-71
2023/07/21 07:08:25;;;;;;;0.50;0.50;;;30.50;50.40;;;;;;5034616;28;20206;-71
2023/07/21 07:10:51;;;;;;;0.70;0.70;;;30.30;50.40;;;;;;5034689;28;20230;-71
2023/07/21 07:13:18;;;;;;;1.50;0.63;;;30.00;50.80;;;;;;5034762;28;20194;-71
2023/07/21 07:15:50;;;;;;;0.60;0.60;;;29.50;51.00;;;;;;5034579;28;20274;-72
2023/07/21 07:18:17;;;;;;;0.60;0.60;;;29.00;50.20;;;;;;5032313;28;20457;-71
2023/07/21 07:20:53;;;;;;;0.83;0.60;;;28.40;50.70;;;;;;5032248;28;20388;-71
2023/07/21 07:23:19;;;;;;;0.70;0.70;;;28.00;47.10;;;;;;5032834;28;20198;-71
2023/07/21 07:25:53;;;;;;;0.80;0.70;;;27.70;48.90;;;;;;5032952;28;20406;-70
2023/07/21 07:28:20;;;;;;;1.50;0.83;;;27.50;47.80;;;;;;5033175;28;20790;-70
2023/07/21 07:30:47;;;;;;;0.60;0.60;;;27.40;49.40;;;;;;5033266;28;20910;-70
2023/07/21 07:33:16;;;;;;;1.40;0.70;;;27.40;49.90;;;;;;5033355;28;20504;-69
2023/07/21 07:35:52;;;;;;;0.40;0.40;;;27.40;49.70;;;;;;5031804;28;20468;-70
2023/07/21 07:38:23;;;;;;;0.50;0.50;;;27.20;48.90;;;;;;5032189;28;20455;-69
2023/07/21 07:40:49;;;;;;;0.60;0.60;;;27.20;50.00;;;;;;5033036;28;20406;-70
2023/07/21 07:43:15;;;;;;;0.40;0.40;;;27.30;48.00;;;;;;5032803;28;20452;-71
2023/07/21 07:45:41;;;;;;;0.90;0.90;;;28.00;50.20;;;;;;5032568;28;20429;-70
2023/07/21 07:48:07;;;;;;;1.40;0.80;;;29.10;48.60;;;;;;5033017;28;20198;-71
2023/07/21 07:50:37;;;;;;;0.90;0.83;;;29.80;43.00;;;;;;5033817;28;20718;-70
2023/07/21 07:53:02;;;;;;;0.70;0.60;;;30.50;43.30;;;;;;5033997;28;20167;-70
2023/07/21 07:55:28;;;;;;;1.23;0.83;;;31.70;43.70;;;;;;5034190;28;20479;-71
2023/07/21 07:57:55;;;;;;;0.80;0.80;;;33.20;39.70;;;;;;5033741;28;20245;-71
2023/07/21 08:00:21;;;;;;;2.07;0.83;;;34.30;37.90;;;;;;5034352;28;20518;-71
2023/07/21 08:02:47;;;;;;;1.10;1.00;;;35.00;35.90;;;;;;5033570;28;20405;-70
2023/07/21 08:05:13;;;;;;;0.50;0.50;;;35.70;36.80;;;;;;5033527;28;20460;-71
2023/07/21 08:07:38;;;;;;;0.50;0.50;;;36.10;35.80;;;;;;5033844;28;20183;-70
2023/07/21 08:10:04;;;;;;;1.00;0.83;;;36.40;33.10;;;;;;5033493;28;20182;-71
2023/07/21 08:12:30;;;;;;;0.83;0.83;;;36.20;33.60;;;;;;5033436;28;20244;-71
2023/07/21 08:14:56;;;;;;;0.70;0.70;;;36.50;33.70;;;;;;5033587;28;20851;-71
2023/07/21 08:17:21;;;;;;;0.60;0.60;;;36.60;32.10;;;;;;5033189;28;20190;-71
2023/07/21 08:19:47;;;;;;;0.40;0.40;;;37.10;33.60;;;;;;5033494;28;20646;-68
2023/07/21 08:22:15;;;;;;;0.70;0.70;;;37.90;33.20;;;;;;5033477;28;20174;-70
2023/07/21 08:24:40;;;;;;;0.50;0.50;;;37.90;32.30;;;;;;5033416;28;20724;-72
2023/07/21 08:27:07;;;;;;;0.73;0.73;;;37.10;37.60;;;;;;5033426;28;20406;-71
2023/07/21 08:29:33;;;;;;;0.60;0.60;;;37.30;31.30;;;;;;5033252;28;20163;-72
2023/07/21 08:31:59;;;;;;;0.60;0.40;;;37.40;31.60;;;;;;5033129;28;20398;-71
2023/07/21 08:34:25;;;;;;;0.50;0.50;;;37.70;30.80;;;;;;5033409;28;20905;-72
2023/07/21 08:36:51;;;;;;;0.60;0.50;;;37.80;30.60;;;;;;5033415;28;20175;-72
2023/07/21 08:39:17;;;;;;;0.90;0.57;;;38.00;30.40;;;;;;5033150;28;20194;-72
2023/07/21 08:41:48;;;;;;;4.77;0.87;;;38.10;30.00;;;;;;5033091;28;20217;-72
2023/07/21 08:44:15;;;;;;;1.03;0.97;;;38.00;29.60;;;;;;5033083;28;20539;-71
2023/07/21 08:46:41;;;;;;;0.93;0.50;;;38.40;30.70;;;;;;5033117;28;20745;-72
2023/07/21 08:49:07;;;;;;;0.50;0.50;;;38.40;29.90;;;;;;5033036;28;20512;-71
2023/07/21 08:51:35;;;;;;;0.73;0.73;;;38.60;30.00;;;;;;5033151;28;20514;-71
2023/07/21 08:54:01;;;;;;;0.60;0.60;;;38.40;29.90;;;;;;5033629;28;20406;-72
2023/07/21 08:56:27;;;;;;;0.63;0.60;;;38.20;29.70;;;;;;5033718;28;20917;-71
2023/07/21 08:58:52;;;;;;;0.77;0.77;;;38.00;29.80;;;;;;5033827;28;20429;-72
2023/07/21 09:01:18;;;;;;;0.60;0.60;;;36.70;31.30;;;;;;5036707;28;20185;-71
2023/07/21 09:03:46;;;;;;;1.17;0.97;;;35.00;33.20;;;;;;5036928;28;20194;-71
2023/07/21 09:06:13;;;;;;;0.67;0.67;;;33.40;35.60;;;;;;5036816;28;20171;-71
2023/07/21 09:08:39;;;;;;;0.90;0.90;;;31.60;37.30;;;;;;5036994;28;20474;-71
2023/07/21 09:11:05;;;;;;;0.67;0.67;;;30.30;39.10;;;;;;5036570;28;20413;-71
2023/07/21 09:13:32;;;;;;;0.90;0.50;;;29.40;41.60;;;;;;5036882;28;20171;-70
2023/07/21 09:16:05;;;;;;;0.80;0.63;;;28.50;42.00;;;;;;5036739;28;20401;-70
2023/07/21 09:18:32;;;;;;;1.03;0.83;;;27.90;43.50;;;;;;5036631;28;20456;-71
2023/07/21 09:20:58;;;;;;;0.63;0.63;;;27.40;45.20;;;;;;5036571;28;20797;-70
2023/07/21 09:23:25;;;;;;;0.53;0.53;;;26.80;46.20;;;;;;5036677;28;20532;-70
2023/07/21 09:25:53;;;;;;;1.07;1.00;;;26.50;48.50;;;;;;5037126;28;20174;-71
2023/07/21 09:28:43;;;;;;;1.20;1.10;;;26.20;48.80;;;;;;5036365;28;20436;-70
2023/07/21 09:31:10;;;;;;;0.70;0.63;;;26.20;50.50;;;;;;5036415;28;20383;-69
2023/07/21 09:33:40;;;;;;;0.57;0.57;;;26.20;49.00;;;;;;5036887;28;20388;-70
2023/07/21 09:36:08;;;;;;;0.60;0.60;;;26.30;49.80;;;;;;5036918;28;20869;-71
2023/07/21 09:38:38;;;;;;;1.20;1.00;;;26.30;49.30;;;;;;5036512;28;20909;-70
2023/07/21 09:41:06;;;;;;;0.70;0.70;;;26.30;49.80;;;;;;5036286;28;20463;-71
2023/07/21 09:43:33;;;;;;;1.33;1.13;;;26.20;50.20;;;;;;5035501;28;20424;-70
2023/07/21 09:46:00;;;;;;;1.87;1.03;;;26.50;49.30;;;;;;5036482;28;20406;-69
2023/07/21 09:48:30;;;;;;;1.53;0.90;;;27.10;48.40;;;;;;5036105;28;20463;-69
2023/07/21 09:50:58;;;;;;;1.80;0.80;;;28.00;48.40;;;;;;5036109;28;20380;-71
2023/07/21 09:53:30;;;;;;;0.90;0.80;;;28.80;47.90;;;;;;5036062;28;20402;-70
2023/07/21 09:55:58;;;;;;;1.70;0.70;;;29.80;47.50;;;;;;5036062;28;21020;-71
2023/07/21 09:58:26;;;;;;;0.60;0.60;;;30.70;43.90;;;;;;5035842;28;20422;-71
2023/07/21 10:00:54;;;;;;;1.53;0.80;;;31.00;44.10;;;;;;5035870;28;20402;-70
2023/07/21 10:03:22;;;;;;;0.80;0.80;;;30.70;43.40;;;;;;5035644;28;20449;-70
2023/07/21 10:05:49;;;;;;;0.60;0.50;;;29.90;43.50;;;;;;5035776;28;20902;-71
2023/07/21 10:08:15;;;;;;;1.23;0.80;;;29.20;44.70;;;;;;5035675;28;20425;-71
2023/07/21 10:10:41;;;;;;;0.70;0.70;;;28.80;45.80;;;;;;5035496;28;20398;-71
2023/07/21 10:13:07;;;;;;;0.93;0.83;;;28.00;48.70;;;;;;5035687;28;20451;-71
2023/07/21 10:15:37;;;;;;;0.80;0.80;;;27.50;49.20;;;;;;5035777;28;20795;-70
2023/07/21 10:18:07;;;;;;;0.67;0.67;;;27.00;51.00;;;;;;5035392;28;20206;-69
2023/07/21 10:20:40;;;;;;;1.33;1.13;;;26.60;50.10;;;;;;5035579;28;20376;-71
2023/07/21 10:23:06;;;;;;;0.80;0.80;;;26.50;50.70;;;;;;5035416;28;20385;-70
2023/07/21 10:25:51;;;;;;;1.03;0.80;;;26.60;49.60;;;;;;5035524;28;20402;-70
2023/07/21 10:28:32;;;;;;;1.00;0.90;;;26.30;49.70;;;;;;5035413;28;20434;-70
2023/07/21 10:34:11;;;;;;;0.67;0.67;;;25.90;52.20;;;;;;5035369;28;20797;-70
2023/07/21 10:37:04;;;;;;;2.00;1.00;;;25.60;52.70;;;;;;5035129;28;20391;-71
2023/07/21 10:39:31;;;;;;;1.23;0.80;;;25.50;52.50;;;;;;5035325;28;20390;-70
2023/07/21 10:42:03;;;;;;;0.80;0.60;;;25.50;53.00;;;;;;5034839;28;20411;-70
2023/07/21 10:44:35;;;;;;;0.60;0.60;;;25.30;53.20;;;;;;5035238;28;20462;-70
2023/07/21 10:47:01;;;;;;;0.80;0.63;;;25.30;67.10;;;;;;5035021;28;20432;-70
2023/07/21 10:49:27;;;;;;;0.93;0.80;;;25.00;54.20;;;;;;5034858;28;20376;-70
2023/07/21 10:51:53;;;;;;;2.53;0.60;;;25.00;55.60;;;;;;5034769;28;20426;-70
2023/07/21 10:54:18;;;;;;;0.80;0.80;;;25.00;57.00;;;;;;5034886;28;20576;-70
2023/07/21 10:56:46;;;;;;;0.67;0.60;;;25.00;56.70;;;;;;5034944;28;20257;-70
2023/07/21 10:59:14;;;;;;;2.13;0.60;;;24.90;57.10;;;;;;5034705;28;20193;-70
2023/07/21 11:01:41;;;;;;;0.97;0.60;;;24.60;58.70;;;;;;5034570;28;20410;-72
2023/07/21 11:04:07;;;;;;;1.37;1.10;;;24.20;57.50;;;;;;5034566;28;20484;-70
2023/07/21 11:06:39;;;;;;;1.03;0.93;;;24.10;61.50;;;;;;5034812;28;20393;-70
2023/07/21 11:09:04;;;;;;;0.60;0.60;;;24.10;58.70;;;;;;5034505;28;20461;-70
2023/07/21 11:11:30;;;;;;;2.40;1.10;;;24.20;58.20;;;;;;5034375;28;20893;-70
2023/07/21 11:13:56;;;;;;;0.77;0.77;;;24.30;59.40;;;;;;5034690;28;20216;-70
2023/07/21 11:16:21;;;;;;;0.73;0.73;;;24.40;58.90;;;;;;5034386;28;20167;-69
2023/07/21 11:18:47;;;;;;;1.60;1.50;;;24.30;60.30;;;;;;5034203;28;20217;-70
2023/07/21 11:21:13;;;;;;;1.10;1.00;;;24.40;59.40;;;;;;5033850;28;20167;-70
2023/07/21 11:23:38;;;;;;;1.40;1.30;;;24.40;60.30;;;;;;5034334;28;20222;-70
2023/07/21 11:26:09;;;;;;;1.77;1.10;;;24.40;59.70;;;;;;5034460;28;20171;-69
2023/07/21 11:28:37;;;;;;;1.73;1.53;;;24.50;62.00;;;;;;5034311;28;20178;-71
2023/07/21 11:31:11;;;;;;;1.90;0.83;;;24.70;63.20;;;;;;5016215;28;20410;-70
2023/07/21 11:33:44;;;;;;;0.93;0.93;;;24.90;61.40;;;;;;5034318;28;20412;-70
2023/07/21 11:36:20;;;;;;;0.87;0.87;;;25.30;60.90;;;;;;5034226;28;20882;-70
2023/07/21 11:39:01;;;;;;;1.17;1.13;;;25.60;57.30;;;;;;5033854;28;20986;-71
2023/07/21 11:41:36;;;;;;;1.43;1.07;;;25.50;55.80;;;;;;5033955;28;20376;-69
2023/07/21 11:44:05;;;;;;;1.33;0.83;;;25.50;57.30;;;;;;5033847;28;20456;-71
2023/07/21 11:46:31;;;;;;;0.90;0.77;;;25.50;58.90;;;;;;5033911;28;20766;-70
2023/07/21 11:48:56;;;;;;;0.60;0.60;;;25.30;58.90;;;;;;5033792;28;20438;-70
2023/07/21 11:51:23;;;;;;;1.10;0.90;;;25.00;58.30;;;;;;5033552;28;20178;-69
2023/07/21 11:53:49;;;;;;;1.40;1.30;;;24.70;59.40;;;;;;5033671;28;20171;-69
2023/07/21 11:56:15;;;;;;;1.33;0.90;;;24.40;59.80;;;;;;5033844;28;20390;-70
2023/07/21 11:58:42;;;;;;;1.57;0.80;;;24.10;61.60;;;;;;5031985;28;20425;-70
2023/07/21 12:01:07;;;;;;;1.50;0.90;;;23.90;60.80;;;;;;5033475;28;20178;-71
2023/07/21 12:03:42;;;;;;;0.70;0.70;;;24.10;63.60;;;;;;5033583;28;20445;-70
2023/07/21 12:06:09;;;;;;;0.83;0.73;;;24.20;58.90;;;;;;5032450;28;20202;-69
2023/07/21 12:08:35;;;;;;;1.70;0.80;;;24.40;60.70;;;;;;5033568;28;20408;-70
2023/07/21 12:11:00;;;;;;;1.10;0.80;;;24.70;59.10;;;;;;5033436;28;20943;-69
2023/07/21 12:13:26;;;;;;;0.50;0.50;;;24.90;59.90;;;;;;5033380;28;20436;-70
2023/07/21 12:15:52;;;;;;;0.40;0.40;;;24.90;58.10;;;;;;5033669;28;20178;-70
2023/07/21 12:18:19;;;;;;;0.60;0.60;;;24.90;58.00;;;;;;5033385;28;20198;-70
2023/07/21 12:20:44;;;;;;;1.43;0.87;;;24.80;57.70;;;;;;5032358;28;20420;-69
2023/07/21 12:23:10;;;;;;;0.60;0.50;;;24.80;56.90;;;;;;5033775;28;20490;-69
2023/07/21 12:25:36;;;;;;;0.60;0.50;;;24.60;58.30;;;;;;5015861;28;20540;-69
2023/07/21 12:28:04;;;;;;;0.30;0.30;;;24.40;56.60;;;;;;5033595;28;20182;-70
2023/07/21 12:30:29;;;;;;;0.50;0.50;;;24.30;58.00;;;;;;5033408;28;20572;-70
2023/07/21 12:32:55;;;;;;;1.07;0.97;;;24.20;58.70;;;;;;5033253;28;20476;-71
2023/07/21 12:35:21;;;;;;;1.07;0.97;;;24.10;56.50;;;;;;5032922;28;20205;-69
2023/07/21 12:37:46;;;;;;;0.40;0.40;;;24.00;58.00;;;;;;5032314;28;20191;-69
2023/07/21 12:40:12;;;;;;;0.60;0.60;;;24.00;57.30;;;;;;5033336;28;20575;-69
2023/07/21 12:42:40;;;;;;;0.70;0.70;;;24.20;59.80;;;;;;5032683;28;20233;-70
2023/07/21 12:45:07;;;;;;;0.50;0.50;;;24.30;58.10;;;;;;5033419;28;20198;-70
2023/07/21 12:47:34;;;;;;;0.40;0.40;;;24.40;56.00;;;;;;5032190;28;20496;-69
2023/07/21 12:49:59;;;;;;;1.33;0.97;;;24.40;56.90;;;;;;5032468;28;20455;-70
2023/07/21 12:52:25;;;;;;;0.70;0.70;;;24.70;58.70;;;;;;5031561;28;20380;-70